Time;durP1;ratioP1;P1;durP2;ratioP2;P2;SDS_P1;SDS_P2;PMS_P1;PMS_P2;Temp;Humidity;BMP_temperature;BMP_pressure;BME280_temperature;BME280_humidity;BME280_pressure;Samples;Min_cycle;Max_cycle;Signal;HPM_P1;HPM_P2
2022/07/13 00:01:26;;;;;;;0.50;0.40;;;21.50;99.90;;;;;;5075646;28;20534;-80
2022/07/13 00:03:52;;;;;;;0.30;0.30;;;21.60;99.90;;;;;;5071967;28;20647;-79
2022/07/13 00:06:18;;;;;;;0.47;0.30;;;21.60;99.90;;;;;;5072743;28;20177;-80
2022/07/13 00:08:44;;;;;;;0.20;0.20;;;21.70;99.90;;;;;;5078249;28;20204;-79
2022/07/13 00:11:09;;;;;;;0.20;0.20;;;21.80;99.90;;;;;;5080913;28;20184;-79
2022/07/13 00:13:35;;;;;;;0.30;0.30;;;21.70;99.90;;;;;;5078506;28;20550;-79
2022/07/13 00:16:00;;;;;;;0.30;0.30;;;21.60;99.90;;;;;;5075356;28;20208;-80
2022/07/13 00:18:26;;;;;;;0.43;0.30;;;21.50;99.90;;;;;;5057633;28;20213;-80
2022/07/13 00:20:51;;;;;;;1.00;0.40;;;21.30;99.90;;;;;;5077848;28;20200;-80
2022/07/13 00:23:17;;;;;;;0.40;0.33;;;21.30;99.90;;;;;;5078226;28;20594;-80
2022/07/13 00:25:42;;;;;;;0.40;0.40;;;21.40;99.90;;;;;;5074652;28;20667;-79
2022/07/13 00:28:08;;;;;;;0.20;0.20;;;21.40;99.90;;;;;;5077989;28;20583;-80
2022/07/13 00:30:33;;;;;;;0.20;0.20;;;21.40;99.90;;;;;;5062692;28;20261;-79
2022/07/13 00:32:59;;;;;;;0.23;0.23;;;21.50;99.90;;;;;;5079651;28;20191;-80
2022/07/13 00:35:25;;;;;;;0.27;0.27;;;21.60;99.90;;;;;;5084970;28;20265;-79
2022/07/13 00:37:50;;;;;;;0.40;0.40;;;21.60;99.90;;;;;;5076547;28;20255;-79
2022/07/13 00:40:16;;;;;;;0.73;0.73;;;21.50;99.90;;;;;;5076374;28;20192;-79
2022/07/13 00:42:42;;;;;;;0.83;0.83;;;21.60;99.90;;;;;;5078198;28;20185;-80
2022/07/13 00:45:08;;;;;;;0.30;0.30;;;21.60;99.90;;;;;;5078074;28;20261;-80
2022/07/13 00:47:34;;;;;;;0.20;0.20;;;21.70;99.90;;;;;;5063403;28;20208;-80
2022/07/13 00:50:06;;;;;;;0.43;0.43;;;21.70;99.90;;;;;;5079972;28;20683;-80
2022/07/13 00:52:32;;;;;;;0.30;0.30;;;21.70;99.90;;;;;;5074505;28;20177;-80
2022/07/13 00:54:58;;;;;;;0.23;0.23;;;21.70;99.90;;;;;;5074143;28;20249;-80
2022/07/13 00:57:27;;;;;;;0.93;0.87;;;21.90;99.90;;;;;;5065646;28;20312;-80
2022/07/13 00:59:53;;;;;;;0.23;0.23;;;21.90;99.90;;;;;;5062554;28;20566;-79
2022/07/13 01:02:18;;;;;;;0.40;0.30;;;21.90;99.90;;;;;;5067061;28;20176;-79
2022/07/13 01:04:44;;;;;;;0.93;0.93;;;21.90;99.90;;;;;;5062486;28;20200;-79
2022/07/13 01:07:10;;;;;;;0.70;0.70;;;21.80;99.90;;;;;;5063277;28;20226;-79
2022/07/13 01:09:36;;;;;;;2.07;0.60;;;21.80;99.90;;;;;;5056633;28;20185;-80
2022/07/13 01:12:02;;;;;;;0.33;0.33;;;21.80;99.90;;;;;;5071462;28;20177;-80
2022/07/13 01:14:29;;;;;;;0.77;0.77;;;21.70;99.90;;;;;;5082029;28;20189;-79
2022/07/13 01:16:55;;;;;;;0.30;0.30;;;21.70;99.90;;;;;;5074175;28;20208;-80
2022/07/13 01:19:22;;;;;;;0.30;0.30;;;21.70;99.90;;;;;;5063589;28;20230;-80
2022/07/13 01:21:52;;;;;;;0.93;0.40;;;21.70;99.90;;;;;;5060898;28;20208;-80
2022/07/13 01:24:17;;;;;;;0.43;0.43;;;21.70;99.90;;;;;;5077360;28;20563;-79
2022/07/13 01:26:43;;;;;;;0.40;0.40;;;21.60;99.90;;;;;;5078301;28;20213;-80
2022/07/13 01:29:09;;;;;;;0.43;0.40;;;21.60;99.90;;;;;;5070439;28;20185;-79
2022/07/13 01:31:39;;;;;;;0.40;0.40;;;21.50;99.90;;;;;;5063093;28;20290;-80
2022/07/13 01:34:05;;;;;;;0.30;0.30;;;21.20;99.90;;;;;;5074015;28;20185;-79
2022/07/13 01:36:31;;;;;;;0.33;0.33;;;20.90;99.90;;;;;;5076275;28;21753;-79
2022/07/13 01:39:00;;;;;;;0.30;0.30;;;20.70;99.90;;;;;;5060829;28;20185;-79
2022/07/13 01:41:28;;;;;;;0.40;0.30;;;20.60;99.90;;;;;;5064992;28;20218;-79
2022/07/13 01:43:54;;;;;;;0.87;0.87;;;20.50;99.90;;;;;;5059997;28;20193;-79
2022/07/13 01:46:20;;;;;;;0.30;0.30;;;20.50;99.90;;;;;;5056230;28;20679;-79
2022/07/13 01:48:45;;;;;;;0.40;0.40;;;20.60;99.90;;;;;;5055255;28;20208;-79
2022/07/13 01:51:11;;;;;;;0.30;0.30;;;20.80;99.90;;;;;;5069239;28;20660;-79
2022/07/13 01:53:36;;;;;;;0.40;0.40;;;20.90;99.90;;;;;;5072775;28;20604;-80
2022/07/13 01:56:02;;;;;;;0.23;0.23;;;21.10;99.90;;;;;;5072137;28;20683;-79
2022/07/13 01:58:27;;;;;;;0.53;0.40;;;21.10;99.90;;;;;;5066972;28;20256;-79
2022/07/13 02:00:53;;;;;;;0.20;0.20;;;21.10;99.90;;;;;;5060082;28;20185;-79
2022/07/13 02:03:19;;;;;;;0.23;0.23;;;21.20;99.90;;;;;;5075286;28;20182;-79
2022/07/13 02:05:45;;;;;;;0.13;0.13;;;21.30;99.90;;;;;;5082553;28;20558;-80
2022/07/13 02:08:11;;;;;;;0.30;0.30;;;21.20;99.90;;;;;;5058883;28;20208;-79
2022/07/13 02:10:36;;;;;;;0.53;0.40;;;21.10;99.90;;;;;;5092856;28;20188;-80
2022/07/13 02:13:07;;;;;;;0.27;0.27;;;21.10;99.90;;;;;;5073150;28;20173;-79
2022/07/13 02:15:32;;;;;;;0.53;0.40;;;21.10;99.90;;;;;;5065724;28;20212;-80
2022/07/13 02:17:58;;;;;;;0.60;0.40;;;21.30;99.90;;;;;;5071901;28;20209;-80
2022/07/13 02:20:24;;;;;;;0.30;0.30;;;21.30;99.90;;;;;;5072466;28;20230;-79
2022/07/13 02:22:50;;;;;;;0.50;0.50;;;21.40;99.90;;;;;;5097828;28;20190;-79
2022/07/13 02:25:15;;;;;;;0.30;0.30;;;21.40;99.90;;;;;;5078445;28;20183;-79
2022/07/13 02:27:42;;;;;;;0.40;0.40;;;21.50;99.90;;;;;;5072065;28;20205;-79
2022/07/13 02:30:10;;;;;;;0.30;0.30;;;21.50;99.90;;;;;;5072770;28;20176;-80
2022/07/13 02:32:35;;;;;;;0.20;0.20;;;21.50;99.90;;;;;;5059610;28;20203;-79
2022/07/13 02:35:01;;;;;;;0.23;0.23;;;21.50;99.90;;;;;;5054146;28;20178;-79
2022/07/13 02:37:26;;;;;;;0.30;0.30;;;21.40;99.90;;;;;;5061969;28;20233;-80
2022/07/13 02:39:55;;;;;;;0.33;0.33;;;21.40;99.90;;;;;;5056397;28;20173;-80
2022/07/13 02:42:22;;;;;;;0.20;0.20;;;21.40;99.90;;;;;;5070769;28;20197;-79
2022/07/13 02:44:48;;;;;;;0.47;0.47;;;21.40;99.90;;;;;;5072765;28;20199;-79
2022/07/13 02:47:13;;;;;;;0.30;0.30;;;21.50;99.90;;;;;;5076694;28;20201;-79
2022/07/13 02:49:40;;;;;;;0.40;0.40;;;21.40;99.90;;;;;;5069484;28;20274;-79
2022/07/13 02:52:06;;;;;;;0.30;0.30;;;21.40;99.90;;;;;;5076206;28;20177;-79
2022/07/13 02:54:31;;;;;;;0.30;0.30;;;21.40;99.90;;;;;;5064803;28;20546;-80
2022/07/13 02:56:57;;;;;;;0.50;0.50;;;21.40;99.90;;;;;;5068903;28;20220;-79
2022/07/13 02:59:22;;;;;;;0.57;0.30;;;21.40;99.90;;;;;;5072035;28;20169;-79
2022/07/13 03:01:48;;;;;;;0.47;0.43;;;21.40;99.90;;;;;;5073749;28;20178;-79
2022/07/13 03:04:13;;;;;;;0.40;0.40;;;21.40;99.90;;;;;;5070328;28;20180;-79
2022/07/13 03:06:39;;;;;;;0.37;0.37;;;21.40;99.90;;;;;;5055706;28;20235;-80
2022/07/13 03:09:04;;;;;;;0.50;0.50;;;21.40;99.90;;;;;;5060465;28;20184;-79
2022/07/13 03:11:30;;;;;;;0.37;0.37;;;21.40;99.90;;;;;;5058617;28;20181;-80
2022/07/13 03:13:55;;;;;;;0.33;0.33;;;21.40;99.90;;;;;;5069972;28;20173;-80
2022/07/13 03:16:21;;;;;;;1.00;0.47;;;21.40;99.90;;;;;;5055280;28;20197;-80
2022/07/13 03:18:46;;;;;;;0.27;0.27;;;21.40;99.90;;;;;;5056595;28;20182;-79
2022/07/13 03:21:12;;;;;;;0.20;0.20;;;21.40;99.90;;;;;;5070160;28;20174;-79
2022/07/13 03:23:37;;;;;;;0.83;0.50;;;21.40;99.90;;;;;;5081396;28;20195;-79
2022/07/13 03:26:03;;;;;;;0.30;0.30;;;21.30;99.90;;;;;;5060494;28;20379;-79
2022/07/13 03:28:29;;;;;;;0.30;0.30;;;21.30;99.90;;;;;;5059473;28;20207;-79
2022/07/13 03:30:54;;;;;;;0.30;0.30;;;21.30;99.90;;;;;;5059605;28;20180;-79
2022/07/13 03:33:20;;;;;;;0.30;0.30;;;21.20;99.90;;;;;;5066658;28;20204;-79
2022/07/13 03:35:45;;;;;;;0.37;0.30;;;21.20;99.90;;;;;;5073432;28;20204;-80
2022/07/13 03:38:11;;;;;;;0.33;0.33;;;21.10;99.90;;;;;;5057445;28;20203;-79
2022/07/13 03:40:36;;;;;;;0.40;0.40;;;21.00;99.90;;;;;;5066893;28;20651;-80
2022/07/13 03:43:02;;;;;;;0.60;0.40;;;20.90;99.90;;;;;;5061802;28;20668;-80
2022/07/13 03:45:27;;;;;;;0.30;0.30;;;21.00;99.90;;;;;;5067723;28;20193;-79
2022/07/13 03:47:53;;;;;;;0.50;0.50;;;21.00;99.90;;;;;;5058420;28;20200;-80
2022/07/13 03:50:19;;;;;;;0.50;0.50;;;21.00;99.90;;;;;;5056797;28;20244;-80
2022/07/13 03:52:45;;;;;;;0.40;0.40;;;21.10;99.90;;;;;;5056617;28;20173;-79
2022/07/13 03:55:10;;;;;;;0.30;0.30;;;21.20;99.90;;;;;;5057397;28;20180;-80
2022/07/13 03:57:36;;;;;;;0.50;0.50;;;21.20;99.90;;;;;;5052790;28;20215;-80
2022/07/13 04:00:02;;;;;;;0.60;0.60;;;21.10;99.90;;;;;;5075804;28;20200;-80
2022/07/13 04:02:28;;;;;;;0.30;0.30;;;21.00;99.90;;;;;;5071805;28;20188;-80
2022/07/13 04:04:53;;;;;;;0.40;0.40;;;21.10;99.90;;;;;;5071197;28;20181;-79
2022/07/13 04:07:19;;;;;;;0.23;0.23;;;21.20;99.90;;;;;;5064421;28;20213;-80
2022/07/13 04:09:44;;;;;;;0.30;0.30;;;21.20;99.90;;;;;;5052346;28;20266;-80
2022/07/13 04:12:10;;;;;;;0.30;0.30;;;21.10;99.90;;;;;;5071940;28;20200;-80
2022/07/13 04:14:35;;;;;;;0.63;0.50;;;21.20;99.90;;;;;;5074160;28;20207;-80
2022/07/13 04:17:01;;;;;;;0.50;0.50;;;21.20;99.90;;;;;;5057983;28;20208;-80
2022/07/13 04:19:26;;;;;;;0.27;0.27;;;21.20;99.90;;;;;;5072345;28;20181;-79
2022/07/13 04:21:52;;;;;;;0.23;0.23;;;21.30;99.90;;;;;;5070796;28;20185;-80
2022/07/13 04:24:17;;;;;;;0.30;0.30;;;21.40;99.90;;;;;;5056482;28;20184;-79
2022/07/13 04:26:43;;;;;;;0.40;0.40;;;21.50;99.90;;;;;;5069805;28;20281;-78
2022/07/13 04:29:08;;;;;;;0.40;0.40;;;21.50;99.90;;;;;;5075000;28;20659;-79
2022/07/13 04:31:34;;;;;;;0.27;0.27;;;21.30;99.90;;;;;;5072930;28;20589;-79
2022/07/13 04:33:59;;;;;;;1.50;0.50;;;21.10;99.90;;;;;;5073910;28;20177;-79
2022/07/13 04:36:25;;;;;;;0.40;0.33;;;21.10;99.90;;;;;;5076928;28;20197;-78
2022/07/13 04:38:50;;;;;;;0.40;0.40;;;21.10;99.90;;;;;;5054943;28;20797;-80
2022/07/13 04:41:16;;;;;;;0.40;0.40;;;21.20;99.90;;;;;;5074439;28;20551;-80
2022/07/13 04:43:45;;;;;;;0.33;0.33;;;21.20;99.90;;;;;;5073875;28;20188;-79
2022/07/13 04:46:13;;;;;;;0.17;0.17;;;21.20;99.90;;;;;;5053524;28;20380;-80
2022/07/13 04:48:39;;;;;;;0.57;0.40;;;21.30;99.90;;;;;;5057041;28;20227;-79
2022/07/13 04:51:05;;;;;;;0.67;0.40;;;21.40;99.90;;;;;;5077921;28;20185;-80
2022/07/13 04:53:31;;;;;;;0.27;0.27;;;21.40;99.90;;;;;;5056825;28;20180;-80
2022/07/13 04:55:56;;;;;;;0.33;0.20;;;21.50;99.90;;;;;;5062557;28;20201;-80
2022/07/13 04:58:22;;;;;;;0.20;0.20;;;21.60;99.90;;;;;;5064945;28;20868;-80
2022/07/13 05:00:48;;;;;;;0.40;0.40;;;21.80;99.90;;;;;;5060480;28;20181;-80
2022/07/13 05:03:14;;;;;;;0.17;0.17;;;21.80;99.90;;;;;;5071565;28;20185;-80
2022/07/13 05:05:39;;;;;;;0.30;0.30;;;21.90;99.90;;;;;;5069004;28;20214;-80
2022/07/13 05:08:05;;;;;;;0.30;0.30;;;21.90;99.90;;;;;;5075610;28;20201;-80
2022/07/13 05:10:31;;;;;;;0.33;0.33;;;22.00;99.90;;;;;;5057966;28;20195;-80
2022/07/13 05:12:57;;;;;;;0.73;0.73;;;22.00;99.90;;;;;;5072093;28;20188;-79
2022/07/13 05:15:23;;;;;;;0.20;0.20;;;22.10;99.90;;;;;;5073636;28;20174;-79
2022/07/13 05:17:49;;;;;;;0.50;0.47;;;22.10;99.90;;;;;;5073467;28;20205;-79
2022/07/13 05:20:14;;;;;;;0.23;0.23;;;22.10;99.90;;;;;;5075064;28;20178;-80
2022/07/13 05:22:40;;;;;;;0.70;0.70;;;22.20;99.90;;;;;;5082064;28;20193;-83
2022/07/13 05:25:06;;;;;;;1.30;0.50;;;22.20;99.90;;;;;;5072215;28;20554;-83
2022/07/13 05:27:31;;;;;;;0.37;0.37;;;22.30;99.90;;;;;;5065680;28;20265;-83
2022/07/13 05:29:57;;;;;;;1.07;1.00;;;22.30;99.90;;;;;;5059152;28;20192;-84
2022/07/13 05:32:23;;;;;;;0.30;0.30;;;22.40;99.90;;;;;;5064672;28;20197;-83
2022/07/13 05:34:49;;;;;;;0.50;0.50;;;22.40;99.90;;;;;;5070919;28;20185;-83
2022/07/13 05:37:15;;;;;;;0.57;0.57;;;22.40;99.90;;;;;;5071960;28;20219;-84
2022/07/13 05:39:45;;;;;;;1.23;1.23;;;22.50;99.90;;;;;;5064981;28;20177;-84
2022/07/13 05:42:11;;;;;;;0.30;0.30;;;22.50;99.90;;;;;;5078211;28;20256;-83
2022/07/13 05:44:37;;;;;;;0.30;0.30;;;22.50;99.90;;;;;;5075182;28;20223;-83
2022/07/13 05:47:03;;;;;;;0.70;0.70;;;22.50;99.90;;;;;;5076538;28;20205;-83
2022/07/13 05:49:28;;;;;;;0.47;0.47;;;22.60;99.90;;;;;;5058052;28;20220;-84
2022/07/13 05:51:54;;;;;;;0.40;0.40;;;22.50;99.90;;;;;;5069973;28;20188;-84
2022/07/13 05:54:20;;;;;;;0.97;0.70;;;22.60;99.90;;;;;;5061103;28;20190;-83
2022/07/13 05:56:45;;;;;;;0.33;0.33;;;22.70;99.90;;;;;;5070858;28;20228;-84
2022/07/13 05:59:11;;;;;;;0.40;0.40;;;22.70;99.90;;;;;;5056357;28;20188;-84
2022/07/13 06:01:36;;;;;;;0.50;0.30;;;22.80;99.90;;;;;;5074050;28;20186;-84
2022/07/13 06:04:02;;;;;;;0.30;0.30;;;23.00;99.90;;;;;;5069276;28;20177;-84
2022/07/13 06:06:27;;;;;;;0.27;0.27;;;23.10;99.90;;;;;;5054633;28;20227;-84
2022/07/13 06:08:53;;;;;;;1.13;0.93;;;23.20;99.90;;;;;;5058470;28;20204;-83
2022/07/13 06:11:18;;;;;;;0.30;0.30;;;23.30;99.90;;;;;;5067369;28;20177;-83
2022/07/13 06:13:44;;;;;;;0.20;0.20;;;23.40;99.90;;;;;;5072799;28;20180;-84
2022/07/13 06:16:09;;;;;;;0.30;0.30;;;23.40;99.90;;;;;;5055928;28;20224;-83
2022/07/13 06:18:35;;;;;;;0.57;0.50;;;23.50;99.90;;;;;;5077183;28;20208;-84
2022/07/13 06:21:01;;;;;;;0.73;0.47;;;23.70;99.90;;;;;;5061306;28;20189;-84
2022/07/13 06:23:26;;;;;;;2.20;2.00;;;23.80;99.90;;;;;;5064787;28;20340;-84
2022/07/13 06:25:53;;;;;;;0.23;0.23;;;23.80;99.90;;;;;;5079700;28;20188;-83
2022/07/13 06:28:19;;;;;;;0.33;0.33;;;23.80;99.90;;;;;;5077926;28;20204;-83
2022/07/13 06:30:45;;;;;;;0.30;0.30;;;23.90;99.90;;;;;;5052956;28;20184;-79
2022/07/13 06:33:10;;;;;;;0.40;0.40;;;23.90;99.90;;;;;;5069666;28;20181;-79
2022/07/13 06:35:36;;;;;;;0.40;0.40;;;24.00;99.90;;;;;;5068174;28;20651;-79
2022/07/13 06:38:01;;;;;;;0.23;0.23;;;24.10;99.90;;;;;;5054385;28;20269;-79
2022/07/13 06:40:27;;;;;;;0.30;0.30;;;24.30;99.90;;;;;;5074422;28;20262;-80
2022/07/13 06:42:53;;;;;;;0.30;0.30;;;24.30;99.90;;;;;;5080275;28;20230;-80
2022/07/13 06:45:19;;;;;;;0.40;0.40;;;24.40;99.90;;;;;;5060892;28;20726;-80
2022/07/13 06:47:44;;;;;;;0.60;0.43;;;24.50;99.90;;;;;;5084891;28;20232;-80
2022/07/13 06:50:10;;;;;;;0.40;0.40;;;24.50;99.90;;;;;;5079015;28;20181;-80
2022/07/13 06:52:40;;;;;;;0.27;0.27;;;24.70;99.90;;;;;;5072134;28;20211;-80
2022/07/13 06:55:07;;;;;;;0.50;0.40;;;24.90;99.90;;;;;;5073812;28;20650;-80
2022/07/13 06:57:34;;;;;;;0.20;0.20;;;25.00;99.90;;;;;;5076662;28;20213;-80
2022/07/13 06:59:59;;;;;;;0.30;0.30;;;25.20;99.90;;;;;;5067498;28;20205;-80
2022/07/13 07:02:25;;;;;;;0.20;0.20;;;25.30;99.90;;;;;;5080853;28;20606;-80
2022/07/13 07:04:51;;;;;;;0.60;0.60;;;25.60;99.90;;;;;;5069191;28;20209;-80
2022/07/13 07:07:17;;;;;;;0.27;0.27;;;25.80;99.90;;;;;;5061791;28;20307;-80
2022/07/13 07:09:42;;;;;;;0.33;0.33;;;25.80;99.90;;;;;;5066858;28;20267;-79
2022/07/13 07:12:08;;;;;;;0.50;0.50;;;26.10;99.90;;;;;;5071875;28;20180;-79
2022/07/13 07:14:33;;;;;;;0.40;0.40;;;26.20;99.90;;;;;;5066353;28;20197;-79
2022/07/13 07:17:02;;;;;;;1.00;0.50;;;26.50;99.90;;;;;;5071494;28;20223;-80
2022/07/13 07:19:28;;;;;;;0.30;0.30;;;26.70;99.90;;;;;;5081137;28;20209;-79
2022/07/13 07:21:54;;;;;;;0.37;0.37;;;26.90;99.90;;;;;;5072962;28;20200;-80
2022/07/13 07:24:20;;;;;;;0.20;0.20;;;27.00;99.90;;;;;;5088299;28;20192;-80
2022/07/13 07:26:45;;;;;;;0.30;0.30;;;27.10;99.90;;;;;;5083145;28;20216;-80
2022/07/13 07:29:11;;;;;;;0.73;0.63;;;27.20;99.90;;;;;;5048916;28;20212;-81
2022/07/13 07:31:36;;;;;;;0.37;0.37;;;27.20;99.90;;;;;;5050730;28;20289;-80
2022/07/13 07:34:02;;;;;;;0.40;0.40;;;27.30;99.90;;;;;;5069228;28;20228;-80
2022/07/13 07:36:27;;;;;;;0.67;0.67;;;27.40;99.90;;;;;;5071969;28;20265;-79
2022/07/13 07:38:53;;;;;;;0.50;0.50;;;27.50;99.90;;;;;;5068704;28;20219;-80
2022/07/13 07:41:19;;;;;;;0.50;0.50;;;27.40;99.90;;;;;;5050499;28;20181;-80
2022/07/13 07:43:46;;;;;;;0.50;0.50;;;27.20;99.90;;;;;;5061290;28;20799;-80
2022/07/13 07:46:12;;;;;;;0.40;0.40;;;27.20;99.90;;;;;;5061322;28;20192;-80
2022/07/13 07:48:51;;;;;;;0.45;0.45;;;27.30;99.90;;;;;;5093552;27;20648;-78
2022/07/13 07:51:17;;;;;;;0.67;0.57;;;27.30;99.90;;;;;;5080498;28;20744;-78
2022/07/13 07:53:43;;;;;;;0.30;0.30;;;27.30;99.90;;;;;;5085669;28;20188;-77
2022/07/13 07:56:09;;;;;;;0.43;0.43;;;27.20;99.90;;;;;;5084009;28;20174;-78
2022/07/13 07:58:34;;;;;;;0.30;0.30;;;27.30;99.90;;;;;;5085903;28;20699;-78
2022/07/13 08:01:00;;;;;;;3.93;0.50;;;27.50;99.90;;;;;;5079859;28;20192;-78
2022/07/13 08:03:26;;;;;;;0.33;0.33;;;27.50;99.90;;;;;;5076960;28;20554;-78
2022/07/13 08:05:55;;;;;;;0.20;0.20;;;27.60;99.90;;;;;;5081222;28;20268;-78
2022/07/13 08:08:20;;;;;;;0.30;0.30;;;27.60;99.90;;;;;;5082088;28;20610;-78
2022/07/13 08:10:46;;;;;;;0.40;0.40;;;27.60;99.90;;;;;;5081596;28;20181;-78
2022/07/13 08:13:12;;;;;;;0.40;0.40;;;27.50;99.90;;;;;;5082481;28;20242;-77
2022/07/13 08:15:37;;;;;;;0.57;0.38;;;27.40;99.90;;;;;;5075289;28;20185;-77
2022/07/13 08:18:03;;;;;;;1.02;0.93;;;27.60;99.90;;;;;;5084720;28;20204;-77
2022/07/13 08:20:29;;;;;;;0.30;0.30;;;27.90;99.90;;;;;;5080998;28;20181;-78
2022/07/13 08:22:54;;;;;;;0.40;0.40;;;28.10;99.90;;;;;;5084611;28;20192;-80
2022/07/13 08:25:20;;;;;;;0.80;0.40;;;28.10;99.90;;;;;;5078971;28;20244;-80
2022/07/13 08:27:46;;;;;;;0.22;0.22;;;28.30;99.90;;;;;;5078562;28;20212;-80
2022/07/13 08:30:11;;;;;;;0.40;0.40;;;28.50;99.90;;;;;;5075726;28;20183;-80
2022/07/13 08:32:38;;;;;;;0.40;0.40;;;28.40;99.90;;;;;;5085676;28;20187;-81
2022/07/13 08:40:34;;;;;;;0.20;0.20;;;28.60;99.90;;;;;;5084346;28;20187;-80
2022/07/13 08:43:00;;;;;;;0.60;0.60;;;28.60;99.90;;;;;;5085203;28;20181;-80
2022/07/13 08:45:26;;;;;;;0.40;0.40;;;28.80;99.90;;;;;;5085359;28;20200;-80
2022/07/13 08:47:52;;;;;;;3.22;0.70;;;28.90;99.90;;;;;;5084567;28;20216;-80
2022/07/13 08:50:20;;;;;;;0.30;0.30;;;28.50;99.90;;;;;;5079936;28;20207;-80
2022/07/13 08:52:46;;;;;;;0.50;0.50;;;28.80;99.90;;;;;;5079180;28;20669;-80
2022/07/13 08:55:12;;;;;;;0.38;0.38;;;28.90;99.90;;;;;;5089293;28;20601;-80
2022/07/13 08:57:39;;;;;;;0.47;0.47;;;29.00;99.90;;;;;;5081102;28;20205;-80
2022/07/13 09:00:09;;;;;;;0.40;0.40;;;29.10;99.90;;;;;;5069557;28;20235;-82
2022/07/13 09:02:35;;;;;;;0.35;0.30;;;29.20;99.90;;;;;;5067821;28;20217;-83
2022/07/13 09:05:07;;;;;;;0.30;0.30;;;29.40;99.90;;;;;;5065629;28;20286;-83
2022/07/13 09:07:33;;;;;;;0.40;0.40;;;29.60;99.90;;;;;;5071511;28;20192;-82
2022/07/13 09:10:02;;;;;;;0.20;0.20;;;29.80;99.90;;;;;;5072285;28;20193;-82
2022/07/13 09:12:28;;;;;;;0.45;0.45;;;29.80;99.90;;;;;;5071766;28;20732;-83
2022/07/13 09:14:58;;;;;;;0.35;0.35;;;30.10;99.90;;;;;;5072858;28;20188;-82
2022/07/13 09:17:35;;;;;;;1.10;0.45;;;30.20;99.90;;;;;;5073004;28;20255;-82
2022/07/13 09:20:16;;;;;;;0.40;0.40;;;30.00;99.90;;;;;;5066297;28;20206;-81
2022/07/13 09:22:50;;;;;;;0.65;0.65;;;30.10;99.90;;;;;;5071567;28;20189;-82
2022/07/13 09:25:33;;;;;;;0.82;0.50;;;29.20;99.90;;;;;;5066521;28;20234;-82
2022/07/13 09:28:10;;;;;;;0.52;0.52;;;29.10;99.90;;;;;;5089078;28;20748;-82
2022/07/13 09:30:40;;;;;;;0.93;0.82;;;29.30;99.90;;;;;;5060041;28;20189;-82
2022/07/13 09:33:06;;;;;;;2.55;0.73;;;29.30;99.90;;;;;;5074242;28;20729;-82
2022/07/13 09:35:49;;;;;;;0.68;0.68;;;29.70;99.90;;;;;;5070523;28;20268;-82
2022/07/13 09:38:39;;;;;;;0.35;0.35;;;29.90;99.90;;;;;;5068515;28;20204;-82
2022/07/13 09:41:24;;;;;;;0.40;0.40;;;29.40;99.90;;;;;;5086063;28;20250;-82
2022/07/13 09:47:01;;;;;;;0.47;0.47;;;29.90;99.90;;;;;;5068531;28;20216;-82
2022/07/13 09:49:39;;;;;;;0.70;0.70;;;30.40;99.90;;;;;;5069475;28;20173;-82
2022/07/13 09:52:06;;;;;;;1.33;1.27;;;30.00;99.90;;;;;;5074114;28;20276;-82
2022/07/13 09:54:34;;;;;;;0.47;0.47;;;30.40;99.90;;;;;;5070755;28;20193;-82
2022/07/13 09:57:02;;;;;;;0.65;0.40;;;30.90;99.90;;;;;;5069735;28;20209;-81
2022/07/13 09:59:29;;;;;;;0.30;0.30;;;31.20;99.90;;;;;;5075795;28;20196;-81
2022/07/13 10:01:54;;;;;;;0.70;0.50;;;31.50;99.90;;;;;;5072440;28;20185;-82
2022/07/13 10:04:21;;;;;;;0.50;0.50;;;31.70;99.90;;;;;;5070911;28;20182;-82
2022/07/13 10:06:47;;;;;;;2.50;0.40;;;31.80;99.90;;;;;;5058489;28;20205;-82
2022/07/13 10:09:14;;;;;;;0.40;0.40;;;31.90;99.90;;;;;;5072609;28;20185;-82
2022/07/13 10:11:39;;;;;;;1.20;1.17;;;31.90;99.90;;;;;;5070058;28;20260;-83
2022/07/13 10:14:06;;;;;;;0.88;0.40;;;31.50;99.90;;;;;;5067774;28;20670;-82
2022/07/13 10:16:32;;;;;;;0.63;0.63;;;31.10;99.90;;;;;;5068344;28;20180;-83
2022/07/13 10:19:03;;;;;;;0.30;0.30;;;31.50;99.90;;;;;;5069483;28;20181;-82
2022/07/13 10:22:01;;;;;;;0.52;0.52;;;31.90;99.90;;;;;;5064651;28;20182;-83
2022/07/13 10:24:28;;;;;;;0.30;0.30;;;32.10;99.90;;;;;;5070718;28;20181;-82
2022/07/13 10:27:27;;;;;;;0.60;0.60;;;32.00;99.90;;;;;;5062395;28;20505;-82
2022/07/13 10:29:55;;;;;;;0.50;0.50;;;32.20;99.90;;;;;;5071092;28;20729;-82
2022/07/13 10:32:23;;;;;;;0.40;0.40;;;32.20;99.90;;;;;;5068094;28;20591;-83
2022/07/13 10:34:52;;;;;;;0.30;0.30;;;32.20;99.90;;;;;;5067257;28;20189;-82
2022/07/13 10:37:17;;;;;;;0.40;0.40;;;32.40;99.90;;;;;;5066659;28;20533;-83
2022/07/13 10:40:12;;;;;;;0.68;0.43;;;32.50;99.90;;;;;;5079611;28;20187;-82
2022/07/13 10:42:53;;;;;;;0.30;0.30;;;32.60;99.90;;;;;;5065646;28;20215;-83
2022/07/13 10:45:38;;;;;;;0.30;0.30;;;32.80;99.90;;;;;;5071662;28;20193;-82
2022/07/13 10:48:25;;;;;;;0.30;0.30;;;33.00;99.90;;;;;;5068365;28;20201;-82
2022/07/13 10:50:58;;;;;;;0.75;0.75;;;32.90;99.90;;;;;;5074355;28;20191;-82
2022/07/13 10:53:45;;;;;;;0.20;0.20;;;32.90;99.90;;;;;;5067143;28;20177;-82
2022/07/13 10:56:19;;;;;;;0.30;0.30;;;33.00;99.90;;;;;;5070813;28;20273;-82
2022/07/13 10:58:46;;;;;;;0.75;0.43;;;33.10;99.90;;;;;;5071184;28;20197;-82
2022/07/13 11:01:30;;;;;;;0.38;0.38;;;33.00;99.90;;;;;;5063442;28;20189;-82
2022/07/13 11:03:56;;;;;;;0.38;0.38;;;33.20;99.90;;;;;;5073198;28;20212;-81
2022/07/13 11:06:23;;;;;;;0.40;0.40;;;32.70;99.90;;;;;;5078926;28;20188;-82
2022/07/13 11:09:10;;;;;;;1.95;0.38;;;32.60;99.90;;;;;;5078377;28;20212;-82
2022/07/13 11:11:44;;;;;;;0.40;0.40;;;32.30;99.90;;;;;;5079413;28;20177;-83
2022/07/13 11:14:35;;;;;;;0.43;0.30;;;31.90;99.90;;;;;;5072925;28;20267;-82
2022/07/13 11:17:13;;;;;;;0.30;0.30;;;31.90;99.90;;;;;;5069047;28;20761;-82
2022/07/13 11:19:51;;;;;;;0.32;0.32;;;32.20;99.90;;;;;;5074886;28;20176;-83
2022/07/13 11:22:17;;;;;;;0.30;0.30;;;32.20;99.90;;;;;;5068800;28;20180;-79
2022/07/13 11:25:14;;;;;;;0.40;0.40;;;32.10;99.90;;;;;;5066619;28;20184;-78
2022/07/13 11:28:23;;;;;;;0.50;0.50;;;32.10;99.90;;;;;;5062987;28;20303;-78
2022/07/13 11:30:54;;;;;;;0.57;0.57;;;32.10;99.90;;;;;;5058114;28;20197;-78
2022/07/13 11:33:20;;;;;;;0.40;0.40;;;32.00;99.90;;;;;;5067987;28;20268;-79
2022/07/13 11:35:46;;;;;;;0.30;0.30;;;32.30;99.90;;;;;;5063408;28;20753;-79
2022/07/13 11:38:14;;;;;;;6.93;3.50;;;32.20;99.90;;;;;;5063574;28;20204;-79
2022/07/13 11:40:40;;;;;;;0.38;0.38;;;32.10;99.90;;;;;;5061610;28;20177;-78
2022/07/13 11:43:08;;;;;;;0.40;0.40;;;32.00;99.90;;;;;;5059964;28;20200;-79
2022/07/13 11:45:34;;;;;;;0.50;0.50;;;31.90;99.90;;;;;;5059716;28;20208;-79
2022/07/13 11:48:02;;;;;;;0.40;0.40;;;32.10;99.90;;;;;;5067822;28;20751;-79
2022/07/13 11:50:42;;;;;;;0.40;0.40;;;32.40;99.90;;;;;;5066149;28;20554;-79
2022/07/13 11:53:10;;;;;;;0.30;0.30;;;32.60;99.90;;;;;;5063231;28;20242;-79
2022/07/13 11:55:36;;;;;;;0.70;0.32;;;32.80;99.90;;;;;;5054896;28;20180;-79
2022/07/13 11:58:02;;;;;;;0.38;0.38;;;32.90;99.90;;;;;;5061904;28;20211;-79
2022/07/13 12:00:28;;;;;;;0.30;0.30;;;33.00;99.90;;;;;;5058585;28;20553;-78
2022/07/13 12:02:55;;;;;;;0.32;0.32;;;33.10;99.90;;;;;;5060579;28;20185;-78
2022/07/13 12:05:23;;;;;;;0.30;0.30;;;32.90;99.90;;;;;;5063662;28;20268;-79
2022/07/13 12:08:03;;;;;;;0.38;0.38;;;33.00;99.90;;;;;;5057613;28;20686;-79
2022/07/13 12:10:30;;;;;;;1.10;0.60;;;33.30;99.90;;;;;;5064715;28;20188;-79
2022/07/13 12:12:56;;;;;;;0.30;0.30;;;33.40;99.90;;;;;;5058045;28;20184;-79
2022/07/13 12:15:22;;;;;;;0.45;0.45;;;33.50;99.90;;;;;;5066150;28;20264;-79
2022/07/13 12:17:53;;;;;;;0.32;0.32;;;33.40;99.90;;;;;;5063679;28;20569;-79
2022/07/13 12:20:23;;;;;;;0.60;0.60;;;33.30;99.90;;;;;;5068413;28;20170;-78
2022/07/13 12:22:56;;;;;;;0.30;0.30;;;33.30;99.90;;;;;;5069515;28;20200;-79
2022/07/13 12:25:28;;;;;;;0.30;0.30;;;33.50;99.90;;;;;;5065870;28;20550;-79
2022/07/13 12:27:55;;;;;;;0.40;0.40;;;33.80;99.90;;;;;;5067613;28;20209;-77
2022/07/13 12:30:20;;;;;;;0.50;0.50;;;34.00;99.90;;;;;;5067606;28;20666;-77
2022/07/13 12:33:02;;;;;;;0.40;0.40;;;34.00;99.90;;;;;;5062509;28;20194;-77
2022/07/13 12:35:39;;;;;;;0.52;0.52;;;34.00;99.90;;;;;;5063419;28;20196;-77
2022/07/13 12:38:14;;;;;;;0.32;0.32;;;34.30;99.90;;;;;;5079047;28;20581;-77
2022/07/13 12:40:51;;;;;;;0.52;0.52;;;34.70;99.90;;;;;;5068809;28;20176;-77
2022/07/13 12:43:26;;;;;;;0.50;0.50;;;35.00;99.90;;;;;;5072196;28;20275;-77
2022/07/13 12:46:12;;;;;;;0.40;0.40;;;34.90;99.90;;;;;;5069040;28;20185;-77
2022/07/13 12:48:38;;;;;;;0.45;0.40;;;34.80;99.90;;;;;;5062888;28;20211;-78
2022/07/13 12:51:12;;;;;;;0.28;0.28;;;34.70;99.90;;;;;;5064839;28;20579;-77
2022/07/13 12:53:49;;;;;;;0.52;0.52;;;35.00;99.90;;;;;;5070197;28;20187;-77
2022/07/13 12:56:19;;;;;;;0.40;0.40;;;35.00;99.90;;;;;;5067494;28;20187;-77
2022/07/13 12:58:47;;;;;;;0.30;0.30;;;34.70;99.90;;;;;;5070230;28;20232;-77
2022/07/13 13:01:32;;;;;;;0.22;0.22;;;34.90;99.90;;;;;;5070850;28;20296;-78